CSUN New Campus Station -PST Time - Most Recent Data on bottom of page




           Date/Time      Avg      Avg      Max     Wind      Avg      Max      Min      Avg      Avg    Total      Avg     Batt
                         Wind     Wind     Wind      Dir     Temp     Temp     Temp       RH      Bar     Rain    Solar     Volt
                      Spd MPH      Dir  Spd MPH   at Max    Deg_F    Deg_F    Deg_F        % Press_mb   Inches     W/m2      Min
--------------------------------------------------------------------------------------------------------------------------------
    10/17/2021 00:00      1.7      347      2.6      346     59.7     60.5     59.3       28     1014     0.00        0     13.3
    10/17/2021 00:15      0.9      333      2.1      334     59.1     59.5     58.5       26     1014     0.00        0     13.3
    10/17/2021 00:30      0.2      162      1.4      163     57.9     58.6     57.1       29     1014     0.00        0     13.3
    10/17/2021 00:45      0.8      353      2.4       -0     57.3     57.7     56.9       29     1014     0.00        0     13.3
    10/17/2021 01:00      0.3      355      2.1       15     56.6     57.2     56.0       31     1014     0.00        0     13.3
    10/17/2021 01:15      0.3      332      1.2      323     56.0     56.5     55.3       32     1014     0.00        0     13.3
    10/17/2021 01:30      0.9      353      1.5      342     55.1     55.5     54.6       34     1014     0.00        0     13.3
    10/17/2021 01:45      1.1        5      2.7        0     55.4     56.8     54.5       26     1014     0.00        0     13.4
    10/17/2021 02:00      0.9        8      2.8       38     56.9     57.1     56.6       27     1014     0.00        0     13.4
    10/17/2021 02:15      0.5      356      1.2      345     56.1     56.9     55.2       31     1014     0.00        0     13.4
    10/17/2021 02:30      0.4      353      1.5      347     54.7     55.3     54.2       32     1014     0.00        0     13.4
    10/17/2021 02:45      0.2      321      1.1      257     54.0     54.5     53.7       32     1013     0.00        0     13.4
    10/17/2021 03:00      0.8      291      1.4      254     53.5     54.0     53.1       33     1013     0.00        0     13.4
    10/17/2021 03:15      0.7      327      1.5      336     53.1     53.6     52.8       37     1013     0.00        0     13.4
    10/17/2021 03:30      0.5      308      1.7      285     52.4     53.0     51.9       35     1013     0.00        0     13.4
    10/17/2021 03:45      0.8      313      1.3      305     51.7     52.0     51.4       39     1013     0.00        0     13.4
    10/17/2021 04:00      0.8      301      1.2      300     51.6     52.0     51.3       39     1013     0.00        0     13.4
    10/17/2021 04:15      1.1      320      1.6      326     51.5     51.7     51.1       42     1013     0.00        0     13.4
    10/17/2021 04:30      0.3      331      1.3      341     51.1     51.4     50.9       40     1013     0.00        0     13.4
    10/17/2021 04:45      0.0        0      0.0      336     50.9     51.3     50.5       42     1013     0.00        0     13.4
    10/17/2021 05:00      0.3       78      1.6       87     50.4     50.6     50.0       42     1013     0.00        0     13.4
    10/17/2021 05:15      0.0       71      0.4       71     50.2     50.5     49.9       42     1013     0.00        0     13.4
    10/17/2021 05:30      0.0        0      0.0       71     49.5     50.0     49.3       43     1013     0.00        0     13.4
    10/17/2021 05:45      0.8      338      1.2      334     49.6     49.9     49.4       44     1013     0.00        0     13.4
    10/17/2021 06:00      0.5      333      1.0      329     50.1     50.4     49.6       42     1013     0.00        0     13.4
    10/17/2021 06:15      0.8      323      1.1      325     50.1     50.4     49.9       41     1013     0.00        5     13.4
    10/17/2021 06:30      1.4      330      2.5      332     50.4     50.9     50.1       38     1013     0.00       19     13.4
    10/17/2021 06:45      1.8      348      2.6      342     51.9     53.3     50.9       34     1013     0.00       23     13.4
    10/17/2021 07:00      0.4      334      1.0      333     53.6     54.3     53.1       36     1013     0.00       74     13.4
    10/17/2021 07:15      0.2      333      1.1      333     55.5     57.6     54.3       31     1013     0.00      154     13.3
    10/17/2021 07:30      0.2       70      1.0       61     59.4     61.3     57.6       30     1014     0.00      199     13.3
    10/17/2021 07:45      1.5      197      2.3      189     64.5     67.4     61.3       24     1014     0.00      249     13.2
    10/17/2021 08:00      1.7      178      2.5      191     67.7     68.6     66.5       24     1014     0.00      285     13.2
    10/17/2021 08:15      0.5      161      1.9      162     67.3     67.8     66.8       20     1014     0.00      342     13.1
    10/17/2021 08:30      0.8      178      1.8      201     68.5     69.7     67.5       17     1014     0.00      376     13.1
    10/17/2021 08:45      1.1       55      3.9       29     71.0     72.1     69.6       14     1014     0.00      416     13.1
    10/17/2021 09:00      2.5       72      5.6       96     71.6     71.9     71.3       13     1014     0.00      454     13.1
    10/17/2021 09:15      2.5       82      6.0       67     71.9     72.6     71.1       13     1014     0.00      490     13.1
    10/17/2021 09:30      2.3       83      6.5       95     73.0     73.7     72.3       12     1014     0.00      525     13.0
    10/17/2021 09:45      2.5       89      7.3       89     73.8     74.4     73.3       13     1014     0.00      555     13.0
    10/17/2021 10:00      2.9      108      6.1      155     74.4     74.8     73.9       13     1014     0.00      582     13.0
    10/17/2021 10:15      2.7      130      6.5       95     75.6     76.4     74.5       12     1014     0.00      606     13.0
    10/17/2021 10:30      2.9      151      5.7      139     76.7     77.8     76.1       13     1014     0.00      627     13.0
    10/17/2021 10:45      2.3      113      5.4      134     77.2     77.9     76.7       12     1014     0.00      644     13.0
    10/17/2021 11:00      3.2       91      9.1      107     76.9     77.4     76.5       14     1014     0.00      657     13.0
    10/17/2021 11:15      3.4      118     11.3      130     77.3     78.0     76.5       15     1014     0.00      665     13.0
    10/17/2021 11:30      3.8      143      8.1      146     78.4     79.3     77.3       15     1014     0.00      670     13.0
    10/17/2021 11:45      3.8      131      8.8      166     78.8     79.7     78.2       18     1014     0.00      671     13.0
    10/17/2021 12:00      5.0      142     11.0      164     78.3     79.4     77.5       19     1013     0.00      671     13.0
    10/17/2021 12:15      3.9      149      8.3      131     78.8     80.1     77.6       17     1013     0.00      667     13.0
    10/17/2021 12:30      5.2      138      9.3      157     79.0     80.0     78.1       16     1013     0.00      657     13.0
    10/17/2021 12:45      4.8      130     13.2      150     79.6     80.1     79.0       16     1013     0.00      644     13.0
    10/17/2021 13:00      4.8      107     11.3       92     79.3     80.2     78.8       17     1012     0.00      625     13.0
    10/17/2021 13:15      6.0      127     13.6      137     78.9     79.6     78.6       16     1012     0.00      607     13.0
    10/17/2021 13:30      6.4      132     13.1      136     79.1     79.9     78.6       15     1012     0.00      586     13.0
    10/17/2021 13:45      7.0      131     13.4      149     79.3     79.8     78.7       15     1012     0.00      561     13.0
    10/17/2021 14:00      7.4      129     14.0      119     78.8     79.4     78.3       16     1012     0.00      532     13.0
    10/17/2021 14:15      6.0      158     15.1      146     79.2     80.2     78.3       15     1012     0.00      501     13.0
    10/17/2021 14:30      4.2      221     10.8      249     79.9     81.1     78.4       30     1012     0.00      465     13.0
    10/17/2021 14:45      4.0      245      9.3      237     77.5     78.6     76.5       32     1012     0.00      419     13.0
    10/17/2021 15:00      3.7      245     10.9      269     76.8     77.4     76.1       29     1012     0.00      382     13.0
    10/17/2021 15:15      3.5      223      7.8      246     77.3     77.6     77.1       29     1012     0.00      341     13.0
    10/17/2021 15:30      3.4      234      8.4      179     77.0     77.5     76.5       30     1012     0.00      299     13.0
    10/17/2021 15:45      3.1      245      8.6      254     75.5     76.6     74.4       32     1012     0.00      198     13.0
    10/17/2021 16:00      2.3      227      6.0      192     74.0     74.5     73.7       32     1011     0.00       39     13.0
    10/17/2021 16:15      3.9      125      9.7       94     73.1     73.7     72.0       30     1011     0.00       36     13.1
    10/17/2021 16:30      3.7      109      9.3      105     71.2     72.0     70.5       32     1011     0.00       37     13.1
    10/17/2021 16:45      3.4      119      8.3      125     70.0     70.7     69.2       37     1012     0.00       24     13.1
    10/17/2021 17:00      2.5      129      7.4       92     68.6     69.3     68.0       40     1012     0.00       17     13.1
    10/17/2021 17:15      1.1       90      3.9      153     67.2     68.2     66.6       43     1012     0.00        9     13.1
    10/17/2021 17:30      1.6      121      5.8       97     66.1     66.8     65.4       47     1011     0.00        3     13.2
    10/17/2021 17:45      1.7       79      4.3      102     64.8     65.6     64.0       51     1012     0.00        0     13.2
    10/17/2021 18:00      2.0       78      5.0       91     63.6     64.2     63.0       54     1012     0.00        0     13.2
    10/17/2021 18:15      2.0      281      4.3       54     62.6     63.2     61.9       57     1012     0.00        0     13.2
    10/17/2021 18:30      2.3      274      6.4      250     61.9     62.1     61.6       59     1013     0.00        0     13.2
    10/17/2021 18:45      2.2      280      5.6      323     61.5     62.0     61.0       60     1013     0.00        0     13.2
    10/17/2021 19:00      1.3      299      3.6      317     60.8     61.2     60.4       61     1013     0.00        0     13.2
    10/17/2021 19:15      1.0      259      2.8      245     60.0     60.7     59.4       61     1013     0.00        0     13.3
    10/17/2021 19:30      0.9      237      3.2      245     59.0     59.6     58.6       64     1013     0.00        0     13.3
    10/17/2021 19:45      0.5      124      3.0      148     58.6     58.8     58.4       64     1013     0.00        0     13.3
    10/17/2021 20:00      0.6      168      2.1       90     58.3     58.6     57.9       67     1013     0.00        0     13.3
    10/17/2021 20:15      2.3       96      5.0       93     58.4     58.7     58.0       69     1013     0.00        0     13.3
    10/17/2021 20:30      1.8       98      4.8      109     58.4     58.7     58.1       70     1013     0.00        0     13.3
    10/17/2021 20:45      2.0      101      4.8       85     58.0     58.3     57.6       73     1013     0.00        0     13.3
    10/17/2021 21:00      2.0      101      4.0      108     57.5     57.8     57.1       76     1013     0.00        0     13.3
    10/17/2021 21:15      1.4      106      3.5       85     57.0     57.4     56.7       77     1013     0.00        0     13.3
    10/17/2021 21:30      2.4      161      6.0      203     56.4     56.9     56.0       78     1013     0.00        0     13.3
    10/17/2021 21:45      2.9      162      5.2      169     55.7     56.1     55.3       79     1013     0.00        0     13.3
    10/17/2021 22:00      1.5      157      3.3      174     55.3     55.7     55.0       79     1014     0.00        0     13.3
    10/17/2021 22:15      2.7      172      4.5      194     55.9     56.4     55.4       77     1014     0.00        0     13.3
    10/17/2021 22:30      2.8      173      5.7      140     56.5     56.9     56.1       76     1014     0.00        0     13.3
    10/17/2021 22:45      3.5      168      6.6      155     56.9     57.1     56.7       76     1014     0.00        0     13.3
    10/17/2021 23:00      2.3      203      5.3      185     56.9     57.1     56.7       75     1014     0.00        0     13.3
    10/17/2021 23:15      2.3      186      5.0      194     56.8     57.0     56.6       75     1014     0.00        0     13.3
    10/17/2021 23:30      0.8      237      2.1      246     56.8     57.0     56.5       74     1014     0.00        0     13.3
    10/17/2021 23:45      1.7      172      3.5      168     56.0     56.7     55.5       75     1014     0.00        0     13.3
    10/18/2021 00:00      1.6      101      3.0      110     55.8     56.1     55.6       76     1013     0.00        0     13.3
    10/18/2021 00:15      1.6      141      2.9      146     55.6     55.8     55.4       77     1013     0.00        0     13.3
    10/18/2021 00:30      3.0      168      5.0      150     55.7     56.0     55.4       77     1013     0.00        0     13.3
    10/18/2021 00:45      2.4      169      4.8      170     56.1     56.3     55.8       77     1013     0.00        0     13.3
    10/18/2021 01:00      1.2      140      2.7      167     56.3     56.6     56.1       77     1013     0.00        0     13.3
    10/18/2021 01:15      1.9      117      3.6      102     56.5     56.8     56.3       77     1013     0.00        0     13.3
    10/18/2021 01:30      2.3      135      6.4      100     56.7     56.9     56.5       77     1013     0.00        0     13.3
    10/18/2021 01:45      1.5      148      3.7      172     56.7     57.0     56.5       77     1013     0.00        0     13.3
    10/18/2021 02:00      1.3      122      3.2      177     56.8     57.0     56.6       77     1013     0.00        0     13.3
    10/18/2021 02:15      2.4      170      4.5      170     56.9     57.1     56.6       77     1013     0.00        0     13.3
    10/18/2021 02:30      2.7      178      4.6      197     56.7     57.0     56.3       80     1013     0.00        3     13.3
    10/18/2021 02:45      1.6      159      3.8      141     56.4     56.7     56.1       81     1012     0.00        2     13.3
    10/18/2021 03:00      1.9      179      4.2      178     56.2     56.5     56.1       82     1012     0.00        1     13.3
    10/18/2021 03:15      1.9      139      3.5      171     56.3     56.6     56.1       83     1012     0.00        1     13.3
    10/18/2021 03:30      1.0      119      3.6      123     56.4     56.6     56.1       83     1012     0.00        1     13.3
    10/18/2021 03:45      0.8      118      3.2      107     56.5     56.8     56.3       82     1012     0.00        1     13.3
    10/18/2021 04:00      1.9      134      4.3      147     56.5     56.8     56.3       81     1012     0.00        0     13.3
    10/18/2021 04:15      1.9      180      5.5      183     56.6     56.8     56.4       81     1012     0.00        0     13.3
    10/18/2021 04:30      3.0      132      7.1      152     56.8     57.1     56.6       80     1012     0.00        0     13.3
    10/18/2021 04:45      3.1      167      7.2      148     56.8     57.0     56.6       80     1012     0.00        0     13.3
    10/18/2021 05:00      3.3      167      6.0      181     56.6     56.8     56.3       82     1012     0.00        1     13.3
    10/18/2021 05:15      2.8      166      5.1      167     56.4     56.6     56.1       83     1012     0.00        0     13.3
    10/18/2021 05:30      1.7      140      3.6      180     56.3     56.5     56.1       84     1012     0.00        0     13.3
    10/18/2021 05:45      2.0      142      3.8      132     56.2     56.5     56.0       84     1012     0.00        0     13.3
    10/18/2021 06:00      1.4      143      3.2      137     56.2     56.4     56.0       84     1012     0.00        0     13.3
    10/18/2021 06:15      2.0      150      3.9      129     56.3     56.5     56.1       84     1012     0.00        2     13.3
    10/18/2021 06:30      2.2      139      4.0      130     56.4     56.6     56.2       84     1012     0.00        7     13.3
    10/18/2021 06:45      2.9      145      6.0      167     56.5     56.7     56.1       84     1012     0.00       10     13.3
    10/18/2021 07:00      2.9      166      6.0      159     56.5     56.8     56.3       84     1012     0.00       27     13.3
    10/18/2021 07:15      2.9      156      5.0      164     56.8     57.1     56.5       84     1012     0.00       37     13.3
    10/18/2021 07:30      2.9      131      5.8      142     57.0     57.4     56.8       83     1013     0.00       47     13.3
    10/18/2021 07:45      3.3      158      5.3      160     57.1     57.3     56.9       83     1013     0.00       39     13.3
    10/18/2021 08:00      3.0      162      5.3      169     57.3     57.7     56.9       84     1013     0.00       72     13.3
    10/18/2021 08:15      3.0      177      5.2      184     57.6     57.8     57.2       83     1013     0.00       79     13.3
    10/18/2021 08:30      3.0      177      4.8      192     57.8     58.3     57.4       81     1013     0.00      152     13.3
    10/18/2021 08:45      2.0      154      4.7      159     59.2     60.3     58.1       75     1013     0.00      299     13.2
    10/18/2021 09:00      2.0      114      4.4      140     59.6     60.0     59.3       74     1013     0.00      258     13.2
    10/18/2021 09:15      1.9      133      4.7       86     60.7     61.7     59.6       68     1013     0.00      410     13.2
    10/18/2021 09:30      2.0      160      6.7      169     61.3     62.2     60.3       66     1013     0.00      111     13.2
    10/18/2021 09:45      4.7      209     12.7      150     60.3     60.6     59.9       65     1013     0.00       58     13.2
    10/18/2021 10:00      2.7      257      6.3      243     60.2     60.9     59.9       63     1013     0.00      211     13.2
    10/18/2021 10:15      3.0      245      7.6      255     63.2     64.5     61.0       55     1013     0.00      684     13.2
    10/18/2021 10:30      3.2      197      8.2      181     65.6     66.6     64.5       53     1013     0.00      485     13.1
    10/18/2021 10:45      2.6      287      5.5      296     63.5     65.1     62.2       55     1013     0.00      111     13.1
    10/18/2021 11:00      2.7      274      7.2      247     62.0     62.4     61.7       54     1012     0.00      108     13.1
    10/18/2021 11:15      2.7      260      6.6      256     62.5     62.9     62.1       53     1012     0.00       95     13.2
    10/18/2021 11:30      1.8      200      4.0      265     63.3     64.5     62.5       48     1012     0.00      241     13.2
    10/18/2021 11:45      1.6      168      3.8      155     64.6     65.2     63.9       47     1012     0.00      190     13.2
    10/18/2021 12:00      0.9      158      2.7      185     64.7     64.9     64.5       46     1012     0.00      115     13.2
    10/18/2021 12:15      2.7       85      6.5       50     64.7     65.0     64.3       45     1012     0.00      207     13.2
    10/18/2021 12:30      3.3       50      8.1       36     64.3     64.6     63.9       52     1011     0.00      161     13.2
    10/18/2021 12:45      3.8       75      8.8       49     63.9     64.3     63.5       50     1011     0.00      138     13.2
    10/18/2021 13:00      4.4      120     10.9      150     64.3     64.8     63.8       49     1011     0.00      168     13.2
    10/18/2021 13:15      4.9      129      9.8      133     64.5     65.2     64.0       46     1011     0.00      200     13.2
    10/18/2021 13:30      4.5      120      9.4       99     64.9     65.2     64.6       47     1011     0.00      203     13.2
    10/18/2021 13:45      3.1      117     10.2      142     64.6     64.9     64.3       44     1011     0.00      143     13.2
    10/18/2021 14:00      2.8      113      8.2      135     64.9     65.5     64.5       43     1011     0.00      212     13.2
    10/18/2021 14:15      4.2       97      9.6       77     65.3     65.7     64.6       45     1011     0.00      161     13.2
    10/18/2021 14:30      4.8       93      9.6      100     64.2     64.8     63.8       48     1011     0.00       95     13.2
    10/18/2021 14:45      3.6      121      7.5      121     63.7     64.0     63.4       47     1011     0.00       73     13.2
    10/18/2021 15:00      3.1      119      7.0      125     63.3     63.5     62.9       47     1011     0.00       36     13.2
    10/18/2021 15:15      2.7      104      7.2       84     63.0     63.3     62.8       46     1011     0.00       29     13.2
    10/18/2021 15:30      3.6       94      8.2       86     62.8     63.0     62.5       46     1011     0.00       39     13.2
    10/18/2021 15:45      3.2       96      7.1       78     62.6     62.8     62.4       47     1011     0.00       67     13.2
    10/18/2021 16:00      3.6       82      8.2       95     62.5     62.8     62.2       48     1011     0.00       84     13.2
    10/18/2021 16:15      2.8       90      7.0      100     62.4     62.6     62.2       47     1011     0.00       60     13.2
    10/18/2021 16:30      3.7       99      8.8      101     62.0     62.6     61.6       48     1011     0.00       38     13.2
    10/18/2021 16:45      2.6      111      6.8      124     61.6     61.9     61.3       49     1011     0.00       20     13.2
    10/18/2021 17:00      2.5      113      5.7       91     61.0     61.4     60.5       51     1011     0.00       19     13.2
    10/18/2021 17:15      2.7       81      5.4       61     60.5     60.8     60.1       51     1012     0.00       17     13.2
    10/18/2021 17:30      2.4       83      5.8       81     60.0     60.3     59.7       52     1012     0.00        2     13.2
    10/18/2021 17:45      2.4       73      5.8       65     59.5     59.9     59.1       52     1012     0.00        0     13.2
    10/18/2021 18:00      2.6       76      5.4      145     59.0     59.3     58.7       54     1012     0.00        0     13.3
    10/18/2021 18:15      2.4       67      5.3       99     58.7     59.0     58.5       56     1012     0.00        0     13.3
    10/18/2021 18:30      2.0       58      4.2       49     58.4     58.7     58.1       59     1012     0.00        0     13.3
    10/18/2021 18:45      2.2       72      4.6       65     57.9     58.4     57.4       60     1012     0.00        0     13.3
    10/18/2021 19:00      2.7       66      6.4       70     57.3     57.6     56.9       61     1012     0.00        0     13.3
    10/18/2021 19:15      1.7       77      3.2      100     56.6     57.1     56.2       63     1013     0.00        0     13.3
    10/18/2021 19:30      1.8       78      4.3       32     56.2     56.4     56.0       68     1013     0.00        0     13.3
    10/18/2021 19:45      2.2       66      5.0       71     56.1     56.4     55.8       70     1013     0.00        0     13.3
    10/18/2021 20:00      2.5       71      5.6       48     55.8     56.1     55.4       72     1013     0.00        0     13.3
    10/18/2021 20:15      2.4       56      4.4       54     55.5     55.7     55.2       73     1013     0.00        0     13.3
    10/18/2021 20:30      2.1       42      3.7       59     55.3     55.6     55.0       73     1013     0.00        0     13.3
    10/18/2021 20:45      2.0       58      3.8      346     54.9     55.2     54.7       74     1014     0.00        0     13.3
    10/18/2021 21:00      1.9       56      3.5       79     54.7     55.1     54.5       75     1014     0.00        0     13.3
    10/18/2021 21:15      1.0       63      2.1       86     54.3     54.8     53.8       75     1014     0.00        0     13.3
    10/18/2021 21:30      1.7       33      3.5       50     53.8     54.0     53.5       76     1014     0.00        0     13.3
    10/18/2021 21:45      1.8       46      3.6       18     53.9     54.1     53.6       73     1014     0.00        0     13.4
    10/18/2021 22:00      1.7       52      3.9       63     53.8     54.0     53.5       73     1014     0.00        0     13.4
    10/18/2021 22:15      1.7       62      4.4       22     53.5     53.8     53.3       73     1014     0.00        0     13.4
    10/18/2021 22:30      1.0       70      3.2       70     53.2     53.6     52.8       74     1014     0.00        0     13.4
    10/18/2021 22:45      2.1       49      4.3       41     53.0     53.3     52.8       74     1014     0.00        0     13.4
    10/18/2021 23:00      1.4       55      3.4       41     53.0     53.2     52.7       74     1014     0.00        0     13.4
    10/18/2021 23:15      0.6       64      3.2       44     52.4     53.0     51.9       74     1014     0.00        0     13.4
    10/18/2021 23:30      1.1       36      2.6      298     51.5     52.1     50.4       75     1014     0.00        0     13.4
    10/18/2021 23:45      0.5      288      1.7      251     50.3     50.6     50.0       77     1014     0.00        0     13.4
    10/19/2021 00:00      0.7      358      2.0       41     49.9     50.1     49.6       76     1014     0.00        0     13.4
    10/19/2021 00:15      1.1       12      3.0       65     49.5     49.9     49.0       73     1014     0.00        0     13.4
    10/19/2021 00:30      0.2       15      1.0       95     48.9     49.1     48.6       73     1014     0.00        0     13.4
    10/19/2021 00:45      1.1       52      3.1       71     48.9     49.4     48.5       72     1014     0.00        0     13.4
    10/19/2021 01:00      1.1      309      2.4      268     48.3     48.7     47.9       73     1014     0.00        0     13.4
    10/19/2021 01:15      0.8       11      1.7      315     48.0     48.2     47.8       73     1014     0.00        0     13.4
    10/19/2021 01:30      0.6      345      1.9      346     47.9     48.5     47.6       73     1014     0.00        0     13.4
    10/19/2021 01:45      0.5      350      1.7      351     47.6     47.9     47.3       74     1014     0.00        0     13.4
    10/19/2021 02:00      0.3      345      1.5      349     47.4     47.7     46.8       74     1014     0.00        0     13.4
    10/19/2021 02:15      0.5        1      1.4       19     46.6     47.1     46.2       73     1014     0.00        0     13.4
    10/19/2021 02:30      0.5      295      1.4      314     46.1     46.4     45.9       74     1014     0.00        0     13.4
    10/19/2021 02:45      0.9      332      2.2      340     46.0     46.3     45.7       75     1014     0.00        0     13.5
    10/19/2021 03:00      0.8      340      2.6      346     46.1     46.3     45.8       73     1014     0.00        0     13.5
    10/19/2021 03:15      0.3      342      2.1      344     45.8     46.0     45.4       72     1014     0.00        0     13.5
    10/19/2021 03:30      0.7      352      1.3      351     45.5     45.8     45.3       71     1014     0.00        0     13.5
    10/19/2021 03:45      0.9       18      3.0        0     45.4     45.7     45.2       68     1014     0.00        0     13.5
    10/19/2021 04:00      0.6      354      2.1      343     45.8     46.1     45.5       66     1014     0.00        0     13.5
    10/19/2021 04:15      0.1      338      1.0      338     45.6     45.9     45.3       67     1014     0.00        0     13.5
    10/19/2021 04:30      0.0      215      1.1      215     45.2     45.6     44.9       68     1014     0.00        0     13.5
    10/19/2021 04:45      0.4      202      2.0      200     44.5     45.0     44.2       70     1014     0.00        0     13.5
    10/19/2021 05:00      0.0        0      0.0      310     44.4     44.6     44.2       71     1014     0.00        0     13.5
    10/19/2021 05:15      0.0        0      0.0      313     44.4     44.6     44.2       72     1014     0.00        0     13.5
    10/19/2021 05:30      0.7      337      1.8      318     44.3     44.5     44.0       73     1014     0.00        0     13.5
    10/19/2021 05:45      0.4       17      1.5       18     44.4     44.6     44.2       73     1014     0.00        0     13.5
    10/19/2021 06:00      0.5      333      1.1      341     44.4     44.5     44.2       74     1014     0.00        1     13.5
    10/19/2021 06:15      0.3      311      1.1      302     44.2     44.4     43.9       74     1014     0.00        5     13.5
    10/19/2021 06:30      0.0      248      1.0      248     43.8     44.1     43.6       75     1014     0.00       12     13.5
    10/19/2021 06:45      0.7      173      1.3      180     44.0     44.5     43.7       76     1014     0.00       25     13.5
    10/19/2021 07:00      1.2      184      2.3      195     45.2     46.4     44.4       77     1015     0.00       72     13.5
    10/19/2021 07:15      0.0      250      1.1      262     47.9     50.5     46.3       74     1015     0.00      145     13.4
    10/19/2021 07:30      0.0      195      0.6      190     52.0     53.8     50.6       63     1015     0.00      187     13.4
    10/19/2021 07:45      0.2      187      1.1      197     54.8     55.4     53.8       57     1016     0.00      229     13.3
    10/19/2021 08:00      0.8      137      2.1      109     56.0     56.5     55.4       53     1016     0.00      274     13.3
    10/19/2021 08:15      0.9      105      2.5       82     56.7     57.5     56.1       52     1016     0.00      317     13.2
    10/19/2021 08:30      1.7      175      3.3      183     58.2     59.1     57.3       51     1016     0.00      360     13.2
    10/19/2021 08:45      1.7      171      3.4      189     59.8     60.2     59.2       49     1016     0.00      401     13.2
    10/19/2021 09:00      2.3      176      4.8      131     60.6     61.5     59.6       50     1016     0.00      439     13.2
    10/19/2021 09:15      2.7      169      5.3      172     62.1     63.0     61.0       47     1016     0.00      475     13.1
    10/19/2021 09:30      2.4      165      5.4      144     63.1     63.8     62.5       48     1016     0.00      509     13.1
    10/19/2021 09:45      2.0      157      5.7      175     62.8     63.4     61.9       43     1016     0.00      540     13.1
    10/19/2021 10:00      2.2      189      6.0      159     63.0     64.1     62.0       42     1016     0.00      567     13.1
    10/19/2021 10:15      1.6      111      4.4      188     64.0     64.5     63.6       43     1016     0.00      591     13.1
    10/19/2021 10:30      2.2      149      5.7      107     64.8     65.8     63.9       42     1016     0.00      611     13.1
    10/19/2021 10:45      2.6      172      6.4      146     66.4     67.3     65.0       40     1016     0.00      629     13.1
    10/19/2021 11:00      1.8      217      4.6      194     66.3     67.1     65.7       41     1016     0.00      643     13.1
    10/19/2021 11:15      2.8      137      6.4      150     66.9     67.4     66.3       36     1015     0.00      655     13.1
    10/19/2021 11:30      2.7      168      6.5      142     67.5     68.2     66.5       34     1015     0.00      662     13.1
    10/19/2021 11:45      2.1      139      4.6       29     67.8     68.6     67.2       34     1015     0.00      665     13.1
    10/19/2021 12:00      2.7      176      6.8      161     68.6     70.3     66.9       32     1015     0.00      664     13.1
    10/19/2021 12:15      2.1      130      4.8       83     69.1     69.7     68.6       30     1015     0.00      660     13.1
    10/19/2021 12:30      2.3      143      7.9      130     69.8     70.7     69.0       28     1014     0.00      651     13.1
    10/19/2021 12:45      2.5      156      7.3      128     70.6     71.7     70.1       28     1014     0.00      640     13.0
    10/19/2021 13:00      2.9      133      6.2      163     71.4     72.3     70.4       27     1014     0.00      624     13.0
    10/19/2021 13:15      2.4      139      8.3      159     71.9     72.4     70.9       24     1014     0.00      604     13.0
    10/19/2021 13:30      3.6      142      7.8      151     72.6     73.3     71.8       26     1014     0.00      581     13.0
    10/19/2021 13:45      2.0      162      7.0      136     72.8     73.8     72.3       26     1014     0.00      556     13.0
    10/19/2021 14:00      3.8      143      8.6      138     73.4     74.5     72.4       24     1014     0.00      527     13.0
    10/19/2021 14:15      4.3      147     11.3      134     72.4     72.9     72.0       24     1014     0.00      493     13.0
    10/19/2021 14:30      5.1      172     10.3      178     73.1     74.1     72.2       24     1013     0.00      459     13.0
    10/19/2021 14:45      5.1      145      9.4      144     72.5     73.9     71.0       24     1013     0.00      422     13.0
    10/19/2021 15:00      4.6      135      9.9      138     71.3     71.7     71.0       27     1013     0.00      381     13.0
    10/19/2021 15:15      4.6      131     10.6      137     70.6     71.1     70.1       28     1013     0.00      340     13.0
    10/19/2021 15:30      4.2      136     10.2      150     71.2     71.6     70.8       28     1013     0.00      296     13.0
    10/19/2021 15:45      3.6      137      8.0      127     70.4     71.2     69.9       28     1013     0.00      174     13.0
    10/19/2021 16:00      3.5      139      7.3      155     69.4     70.0     68.8       29     1013     0.00       38     13.1
    10/19/2021 16:15      4.1      133      7.1      135     68.6     69.1     68.2       34     1013     0.00       40     13.1
    10/19/2021 16:30      3.6      139      7.5      138     67.8     68.4     67.3       33     1013     0.00       38     13.1
    10/19/2021 16:45      2.5      164      5.5      148     67.2     67.6     66.8       34     1013     0.00       26     13.1
    10/19/2021 17:00      3.9      163      6.4      174     66.4     67.0     65.8       39     1013     0.00       16     13.2
    10/19/2021 17:15      3.3      143      6.3      160     65.5     65.9     65.3       39     1013     0.00        8     13.2
    10/19/2021 17:30      1.5      205      2.8      217     64.6     65.5     63.5       43     1014     0.00        1     13.2
    10/19/2021 17:45      1.4      282      3.6      297     63.1     63.7     62.5       49     1014     0.00        0     13.2
    10/19/2021 18:00      1.7      284      5.8      252     62.4     62.8     61.9       52     1014     0.00        0     13.2
    10/19/2021 18:15      2.5      262      6.5      246     62.0     62.3     61.6       52     1014     0.00        0     13.2
    10/19/2021 18:30      2.7      260      6.4      235     61.4     61.8     60.9       54     1014     0.00        0     13.2
    10/19/2021 18:45      2.6      257      5.3      252     60.6     61.0     60.0       56     1014     0.00        0     13.3
    10/19/2021 19:00      2.1      249      4.3      257     59.7     60.1     59.0       57     1015     0.00        0     13.3
    10/19/2021 19:15      2.6      255      6.0      252     58.9     59.3     58.6       59     1015     0.00        0     13.3
    10/19/2021 19:30      2.2      262      4.8      268     58.7     59.0     58.3       59     1015     0.00        0     13.3
    10/19/2021 19:45      2.8      246      5.3      247     57.9     58.5     57.2       60     1015     0.00        0     13.3
    10/19/2021 20:00      2.1      224      5.0      247     57.0     57.4     56.8       62     1015     0.00        0     13.3
    10/19/2021 20:15      1.8      219      3.0      220     56.8     57.0     56.5       62     1015     0.00        0     13.3
    10/19/2021 20:30      1.5      244      3.8      233     56.2     56.6     55.8       64     1016     0.00        0     13.3
    10/19/2021 20:45      1.2      271      2.7      251     56.0     56.3     55.7       64     1016     0.00        0     13.3
    10/19/2021 21:00      1.3      285      2.4      293     55.5     55.9     55.2       65     1016     0.00        0     13.3
    10/19/2021 21:15      1.5      260      4.0      279     55.4     55.7     55.0       65     1016     0.00        0     13.3
    10/19/2021 21:30      0.9      261      3.0      258     54.8     55.3     54.1       67     1016     0.00        0     13.3
    10/19/2021 21:45      0.0      311      0.7      312     53.8     54.5     53.4       69     1016     0.00        0     13.3
    10/19/2021 22:00      0.4      156      1.3      168     53.3     53.6     52.8       71     1016     0.00        0     13.3
    10/19/2021 22:15      0.7      252      2.4      246     53.4     53.8     53.1       70     1016     0.00        0     13.4
    10/19/2021 22:30      1.0      326      2.5      259     53.3     53.5     53.1       69     1016     0.00        0     13.4
    10/19/2021 22:45      0.0      334      1.2      335     53.1     53.4     52.8       70     1016     0.00        0     13.4
    10/19/2021 23:00      0.0      335      0.9      334     52.6     53.1     52.2       71     1016     0.00        0     13.4
    10/19/2021 23:15      0.0        0      0.0      335     51.8     52.3     51.4       72     1016     0.00        0     13.4
    10/19/2021 23:30      0.3      174      1.2      174     51.4     51.6     51.1       74     1016     0.00        0     13.4
    10/19/2021 23:45      0.0      118      1.4      113     51.1     51.4     50.7       75     1016     0.00        0     13.4
    10/20/2021 00:00      0.3       78      1.2       65     50.6     50.9     50.4       76     1016     0.00        0     13.4
    10/20/2021 00:15      0.5      328      1.6      318     50.3     50.6     49.9       76     1016     0.00        0     13.4
    10/20/2021 00:30      0.9      318      1.5      318     50.0     50.2     49.8       77     1016     0.00        0     13.4
    10/20/2021 00:45      0.5      315      1.4      315     50.0     50.4     49.7       77     1016     0.00        0     13.4
    10/20/2021 01:00      0.8       74      2.1       78     49.8     50.0     49.5       78     1016     0.00        0     13.4
    10/20/2021 01:15      1.0       10      1.9       49     49.6     49.9     49.3       78     1016     0.00        0     13.4
    10/20/2021 01:30      0.6      322      1.1      321     49.3     49.5     49.0       77     1016     0.00        0     13.4
    10/20/2021 01:45      1.0      317      1.8      325     49.1     49.4     48.9       78     1017     0.00        0     13.4
    10/20/2021 02:00      0.1      323      1.5      323     48.7     49.1     48.3       78     1016     0.00        0     13.4
    10/20/2021 02:15      0.7      337      1.9      341     48.4     48.7     48.1       79     1016     0.00        0     13.4
    10/20/2021 02:30      0.5      343      1.7      351     48.2     48.5     47.9       79     1016     0.00        0     13.4
    10/20/2021 02:45      0.4      340      1.2      344     48.3     48.5     48.0       78     1016     0.00        0     13.4
    10/20/2021 03:00      0.2        6      1.3      349     48.2     48.5     47.9       78     1016     0.00        0     13.4
    10/20/2021 03:15      0.5      260      1.7      259     48.0     48.3     47.7       79     1016     0.00        0     13.4
    10/20/2021 03:30      0.7      290      2.1      296     47.8     48.0     47.6       79     1016     0.00        0     13.4
    10/20/2021 03:45      0.8      303      3.2      299     47.3     47.8     47.1       80     1016     0.00        0     13.4
    10/20/2021 04:00      0.0      284      1.0      284     47.2     47.5     46.9       80     1016     0.00        0     13.4
    10/20/2021 04:15      0.2      300      0.7      301     47.0     47.1     46.8       80     1016     0.00        0     13.4
    10/20/2021 04:30      0.7      309      1.5      293     47.1     47.3     46.8       80     1016     0.00        0     13.4
    10/20/2021 04:45      0.6      320      1.9      325     47.2     47.4     46.9       80     1017     0.00        0     13.4
    10/20/2021 05:00      0.3      309      1.4      308     47.0     47.3     46.7       80     1017     0.00        0     13.4
    10/20/2021 05:15      0.3      307      1.4      304     46.6     47.0     46.2       80     1017     0.00        0     13.4
    10/20/2021 05:30      0.4      331      1.6      326     46.5     46.8     46.1       80     1017     0.00        0     13.4
    10/20/2021 05:45      0.4       14      1.8       56     46.5     46.8     46.2       79     1017     0.00        0     13.4
    10/20/2021 06:00      0.4       40      3.2       37     46.5     46.8     46.2       79     1017     0.00        1     13.4
    10/20/2021 06:15      0.8       10      2.3       39     47.0     47.3     46.7       79     1017     0.00        5     13.4
    10/20/2021 06:30      1.2       30      2.9       42     47.4     47.7     47.1       78     1017     0.00       10     13.4
    10/20/2021 06:45      0.7      118      1.6      108     47.3     47.5     47.0       78     1017     0.00       16     13.4
    10/20/2021 07:00      0.2      171      1.4      181     47.5     48.6     46.9       79     1017     0.00       71     13.4
    10/20/2021 07:15      0.2      183      1.1      236     50.4     52.0     48.5       75     1017     0.00      134     13.4
    10/20/2021 07:30      0.9      213      3.0      186     53.9     55.1     52.0       65     1017     0.00      182     13.3
    10/20/2021 07:45      0.9      262      2.1      258     55.8     56.3     54.7       62     1018     0.00      226     13.3
    10/20/2021 08:00      0.6      178      1.8      172     57.5     59.8     55.8       56     1018     0.00      270     13.2
    10/20/2021 08:15      1.8      166      3.2      147     60.8     61.4     59.6       51     1018     0.00      265     13.2
    10/20/2021 08:30      1.8      179      4.4      173     61.3     62.3     60.5       50     1018     0.00      350     13.2
    10/20/2021 08:45      1.6      171      3.6      135     62.4     62.9     62.0       49     1018     0.00      395     13.2
    10/20/2021 09:00      1.5      176      3.8      166     63.4     65.2     62.3       44     1018     0.00      434     13.1
    10/20/2021 09:15      1.4      159      3.9      167     65.4     66.0     64.8       43     1018     0.00      471     13.1
    10/20/2021 09:30      1.0      148      2.7      106     65.2     66.1     64.5       41     1018     0.00      506     13.1
    10/20/2021 09:45      2.0      160      5.4      130     67.0     68.1     65.5       36     1018     0.00      537     13.1
    10/20/2021 10:00      2.0      211      6.3      203     68.3     69.4     67.3       37     1018     0.00      565     13.1
    10/20/2021 10:15      3.4      181      8.2      187     70.2     71.1     68.5       31     1018     0.00      591     13.1
    10/20/2021 10:30      2.6      176      6.4      180     71.0     71.4     70.6       30     1018     0.00      593     13.0
    10/20/2021 10:45      2.4      207      5.8      185     71.8     72.5     70.7       28     1018     0.00      629     13.0
    10/20/2021 11:00      2.2      148      5.4      170     72.8     73.6     72.1       28     1018     0.00      644     13.0
    10/20/2021 11:15      2.0      162      4.9      172     73.8     74.9     73.2       25     1017     0.00      650     13.0
    10/20/2021 11:30      1.7      141      4.3      152     74.4     75.4     73.5       27     1017     0.00      659     13.0
    10/20/2021 11:45      2.4      271      5.6      207     74.7     75.5     73.9       26     1017     0.00      660     13.0
    10/20/2021 12:00      2.5      163      6.2      154     75.5     76.2     74.2       23     1017     0.00      658     13.0
    10/20/2021 12:15      1.7      188      3.9      141     75.9     76.7     75.2       24     1017     0.00      649     13.0
    10/20/2021 12:30      1.9      208      4.0      207     78.4     79.5     76.5       19     1017     0.00      643     13.0
    10/20/2021 12:45      2.6      138      5.9      138     78.4     79.3     77.1       19     1016     0.00      635     13.0
    10/20/2021 13:00      2.8      167      6.4      132     78.2     79.6     77.0       17     1016     0.00      617     13.0
    10/20/2021 13:15      2.7      166      5.9      175     79.1     79.6     78.8       17     1016     0.00      601     13.0
    10/20/2021 13:30      2.5      151      6.6      165     79.4     80.0     78.8       16     1016     0.00      579     13.0
    10/20/2021 13:45      3.6      194      7.0      173     80.7     81.5     79.3       15     1016     0.00      552     13.0
    10/20/2021 14:00      2.4      170      6.1      175     81.0     81.7     80.4       16     1016     0.00      521     13.0
    10/20/2021 14:15      4.4      146      8.3      158     80.2     81.4     79.4       15     1015     0.00      492     13.0
    10/20/2021 14:30      3.6      148      8.5      145     79.3     80.0     78.8       24     1015     0.00      451     13.0
    10/20/2021 14:45      5.1      133     10.3      144     78.0     79.2     77.0       25     1015     0.00      374     13.0
    10/20/2021 15:00      4.7      171     10.5      164     77.2     77.6     76.7       25     1016     0.00      226     13.0
    10/20/2021 15:15      3.8      237      9.2      256     76.7     77.2     76.3       26     1016     0.00      352     13.0
    10/20/2021 15:30      4.1      265      8.3      250     75.9     76.8     75.0       28     1016     0.00      306     13.0
    10/20/2021 15:45      3.6      251      8.5      271     74.8     75.5     74.1       30     1016     0.00      174     13.0
    10/20/2021 16:00      3.3      249      9.3      240     73.6     74.3     73.1       30     1016     0.00       68     13.0
    10/20/2021 16:15      3.9      274      9.7      247     72.2     73.2     71.4       32     1016     0.00       64     13.1
    10/20/2021 16:30      4.6      273      9.3      227     70.7     71.7     69.9       33     1016     0.00       47     13.1
    10/20/2021 16:45      3.6      258     10.4      252     69.5     70.1     69.0       33     1016     0.00       31     13.1
    10/20/2021 17:00      3.1      248      6.8      245     68.7     69.3     68.2       33     1016     0.00       15     13.1
    10/20/2021 17:15      2.8      250      5.7      240     67.8     68.4     67.0       35     1016     0.00        7     13.1
    10/20/2021 17:30      3.4      257      7.6      255     66.7     67.2     66.3       36     1016     0.00        2     13.2
    10/20/2021 17:45      2.6      263      7.3      263     65.9     66.5     65.3       36     1016     0.00        0     13.2
    10/20/2021 18:00      3.1      257      6.3      251     64.8     65.5     64.3       38     1017     0.00        0     13.2
    10/20/2021 18:15      3.1      258      6.9      261     64.1     64.5     63.6       39     1017     0.00        0     13.2
    10/20/2021 18:30      2.7      257      6.4      247     63.4     63.7     63.0       40     1017     0.00        0     13.2
    10/20/2021 18:45      2.2      236      6.6      252     62.6     63.3     61.9       43     1017     0.00        0     13.2
    10/20/2021 19:00      1.5      224      3.2      221     61.3     62.0     60.9       45     1017     0.00        0     13.2
    10/20/2021 19:15      0.6      242      3.5      271     60.7     61.2     60.2       46     1017     0.00        0     13.3
    10/20/2021 19:30      0.4      275      1.4      290     60.0     60.4     59.8       47     1017     0.00        0     13.3
    10/20/2021 19:45      0.2      245      1.1      203     59.5     59.9     59.0       49     1017     0.00        0     13.3
    10/20/2021 20:00      0.7      206      2.0      214     58.6     59.2     58.1       50     1017     0.00        0     13.3
    10/20/2021 20:15      0.5      237      2.3      207     57.8     58.3     57.4       52     1017     0.00        0     13.3
    10/20/2021 20:30      1.1      223      2.2      215     57.4     57.6     57.1       53     1017     0.00        0     13.3
    10/20/2021 20:45      0.9      238      2.5      262     57.0     57.5     56.5       55     1017     0.00        0     13.3
    10/20/2021 21:00      0.9      197      2.0      210     56.2     56.7     55.8       57     1017     0.00        0     13.3
    10/20/2021 21:15      0.8      234      2.7      256     55.8     56.1     55.5       59     1017     0.00        0     13.3
    10/20/2021 21:30      0.7      311      2.1      327     55.6     55.8     55.4       60     1017     0.00        0     13.3
    10/20/2021 21:45      1.0      309      1.4      311     55.5     55.8     55.3       60     1017     0.00        0     13.3
    10/20/2021 22:00      0.4      299      1.2      310     55.3     55.7     54.9       61     1017     0.00        0     13.3
    10/20/2021 22:15      0.0      307      0.7      307     54.6     55.1     54.2       62     1017     0.00        0     13.3
    10/20/2021 22:30      0.3      313      0.9      308     54.2     54.4     53.9       63     1017     0.00        0     13.3
    10/20/2021 22:45      0.0        0      0.0      321     53.6     54.1     53.3       64     1017     0.00        0     13.4
    10/20/2021 23:00      0.1      273      0.9      272     53.3     53.6     52.9       66     1018     0.00        0     13.4
    10/20/2021 23:15      0.0        0      0.0      278     53.0     53.4     52.6       67     1018     0.00        0     13.4
    10/20/2021 23:30      0.7       48      1.8       28     52.7     53.0     52.5       69     1018     0.00        0     13.4
    10/20/2021 23:45      0.5       36      2.1       39     52.8     53.0     52.5       69     1018     0.00        0     13.4
    10/21/2021 00:00      0.0       43      0.9       44     52.5     52.8     52.2       69     1018     0.00        0     13.4
    10/21/2021 00:15      0.8       21      2.1       26     52.3     52.5     52.0       68     1018     0.00        0     13.4
    10/21/2021 00:30      0.3       28      2.0       29     52.5     52.9     51.9       67     1017     0.00        0     13.4
    10/21/2021 00:45      0.2      264      1.5      263     51.7     52.1     51.3       68     1017     0.00        0     13.4
    10/21/2021 01:00      1.2      297      1.9      297     51.4     51.8     51.2       70     1017     0.00        0     13.4
    10/21/2021 01:15      1.0      326      1.5      329     51.7     51.9     51.5       69     1017     0.00        0     13.4
    10/21/2021 01:30      0.3      327      1.4      328     51.4     51.8     50.8       69     1017     0.00        0     13.4
    10/21/2021 01:45      0.3      326      1.4      326     50.6     51.0     50.4       71     1017     0.00        0     13.4
    10/21/2021 02:00      1.0      329      2.2      330     50.4     50.7     50.2       71     1017     0.00        0     13.4
    10/21/2021 02:15      0.5      330      1.4      328     50.0     50.4     49.7       72     1017     0.00        0     13.4
    10/21/2021 02:30      0.4      328      1.4      328     49.9     50.1     49.7       72     1017     0.00        0     13.4
    10/21/2021 02:45      0.5      327      1.2      327     49.6     50.0     49.4       72     1017     0.00        0     13.4
    10/21/2021 03:00      0.0        0      0.0      327     49.2     49.6     49.0       73     1017     0.00        0     13.4
    10/21/2021 03:15      0.7      311      1.4      328     49.3     49.6     49.0       74     1017     0.00        0     13.4
    10/21/2021 03:30      0.6      340      1.2      344     49.4     49.6     49.1       74     1017     0.00        0     13.4
    10/21/2021 03:45      0.9      336      1.6      337     49.2     49.5     48.8       74     1017     0.00        0     13.4
    10/21/2021 04:00      0.7      342      1.4      335     48.9     49.1     48.5       75     1017     0.00        0     13.4
    10/21/2021 04:15      0.3      346      1.1      344     49.2     49.7     48.8       74     1017     0.00        0     13.4
    10/21/2021 04:30      0.0        0      0.0      346     49.7     50.0     49.3       72     1017     0.00        0     13.4
    10/21/2021 04:45      0.3      251      1.4      245     49.0     49.5     48.7       73     1017     0.00        0     13.4
    10/21/2021 05:00      0.4       60      1.6       55     48.5     48.8     48.2       74     1017     0.00        0     13.4
    10/21/2021 05:15      0.0       59      0.5       59     48.3     48.5     48.0       75     1017     0.00        0     13.4
    10/21/2021 05:30      0.0        0      0.0       59     48.2     48.4     48.0       75     1017     0.00        0     13.4
    10/21/2021 05:45      0.0        0      0.0       16     48.2     48.4     47.9       75     1017     0.00        0     13.4
    10/21/2021 06:00      0.0        0      0.0        2     48.0     48.4     47.6       75     1018     0.00        0     13.4
    10/21/2021 06:15      0.8      284      2.0      260     48.0     48.2     47.6       74     1017     0.00        4     13.4